Riverton, Illinois
Current Conditions -  °F | °C
As of 11:52 AM on Sunday 25 Jan 2015 (Local Time) from KSPI Reporting Station
Overcast Overcast  
Wind Chill: 31°   Ceiling: 800
Heat Index: 39°   Visibility: 9mi
Dew Point: 35°   Wind: 13mph
Humidity: 86%   Direction: 40°NE
Pressure: 29.64"   Gusts: NA
Location:  39.84°N, 89.54°W
Report Text: KSPI 251752Z 04011KT 9SM BKN008 BKN024 OVC037 04/02 A2964 RMK AO2 RAB01E24 SLP040 P0000 60013 T00390017 10056 20039 53013
Loading
Personal Weather Stations






























Interactive Weather Map New forecast layout! Learn more

10-Day Weather Forecast

Advertisements
Track Severe Weather on mobile